Flight Track Log - Related Links

Times and Time Zones

All times are in EDT time to prevent confusion due to time zone crossing. See the ASQ4976 flight status page for this flight to view local times or setup timezone preferences in your user account.

Time Position Orientation Groundspeed Altitude Reporting Facility
EDT Latitude Longitude Course Direction KTS MPH feet Rate Location/Type
Fri 09:59:29 AM 33.6500 -84.4667 301° West 163 188 2,700  Level Atlanta TRACON
Fri 10:00:35 AM 33.6833 -84.5333 301° West 255 293 4,200 2,048 Climbing Atlanta TRACON
Fri 10:01:35 AM 33.7500 -84.5833 328° Northwest 300 345 7,000 2,789 Climbing Atlanta TRACON
Fri 10:02:29 AM 33.8167 -84.5667 12° North 311 358 9,500 2,269 Climbing Atlanta TRACON
Fri 10:03:34 AM 33.9039 -84.5119 28° Northeast 314 361 11,500 1,776 Climbing Atlanta Center
Fri 10:04:34 AM 34.0003 -84.4547 26° Northeast 360 414 13,200 1,850 Climbing Atlanta Center
Fri 10:05:34 AM 34.0900 -84.3975 28° Northeast 374 430 15,200 2,100 Climbing Atlanta Center
Fri 10:06:34 AM 34.1989 -84.3350 25° Northeast 401 461 17,400 2,250 Climbing Atlanta Center
Fri 10:07:34 AM 34.2992 -84.2803 24° Northeast 401 461 19,700 1,800 Climbing Atlanta Center
Fri 10:08:34 AM 34.4078 -84.2553 11° North 395 455 21,000 1,150 Climbing Atlanta Center
Fri 10:09:34 AM 34.5267 -84.2253 12° North 413 475 22,000 1,333 Climbing Atlanta Center
Fri 10:11:34 AM 34.7522 -84.1753 10° North 429 494 25,000 1,467 Climbing Atlanta Center
Fri 10:12:34 AM 34.8733 -84.1450 12° North 429 494 26,400 1,200 Climbing Atlanta Center
Fri 10:13:34 AM 34.9964 -84.1147 11° North 429 494 27,400 1,000 Climbing Atlanta Center
Fri 10:14:34 AM 35.1236 -84.0869 10° North 442 509 28,400 1,050 Climbing Atlanta Center
Fri 10:15:34 AM 35.2467 -84.0567 11° North 449 517 29,500 1,450 Climbing Atlanta Center
Fri 10:16:34 AM 35.3719 -84.0233 12° North 449 517 31,300 1,900 Climbing Atlanta Center
Fri 10:17:34 AM 35.4931 -83.9953 11° North 449 517 33,300 1,700 Climbing Atlanta Center
Fri 10:18:34 AM 35.6078 -83.9672 11° North 435 501 34,700 1,000 Climbing Atlanta Center
Fri 10:19:34 AM 35.7203 -83.9417 10° North 424 488 35,300 650 Climbing Atlanta Center
Fri 10:20:34 AM 35.8350 -83.9106 12° North 419 482 36,000 650 Climbing Atlanta Center
Fri 10:21:34 AM 35.9475 -83.8694 16° North 414 476 36,600 500 Climbing Atlanta Center
Fri 10:22:34 AM 36.0581 -83.8000 27° Northeast 422 486 37,000 200 Climbing Atlanta Center
Fri 10:23:34 AM 36.1683 -83.7275 28° Northeast 434 499 37,000  Level Atlanta Center
Fri 10:24:34 AM 36.2850 -83.6575 26° Northeast 452 520 37,000  Level Atlanta Center
Fri 10:25:20 AM 36.3800 -83.5925 29° Northeast 477 549 37,000  Level Indianapolis Center
Fri 10:26:22 AM 36.4992 -83.5164 27° Northeast 482 555 37,000  Level Indianapolis Center
Fri 10:27:25 AM 36.6228 -83.4392 27° Northeast 481 554 37,000  Level Indianapolis Center
Fri 10:28:27 AM 36.7325 -83.3392 36° Northeast 481 554 37,000  Level Indianapolis Center
Fri 10:29:29 AM 36.8606 -83.2194 37° Northeast 484 557 37,000  Level Indianapolis Center
Fri 10:30:31 AM 36.9711 -83.1136 37° Northeast 491 565 37,000  Level Indianapolis Center
Fri 10:31:33 AM 37.0844 -83.0072 37° Northeast 496 571 37,000  Level Indianapolis Center
Fri 10:32:35 AM 37.1967 -82.8994 37° Northeast 499 574 37,000  Level Indianapolis Center
Fri 10:33:37 AM 37.3078 -82.7922 37° Northeast 499 574 37,000  Level Indianapolis Center
Fri 10:34:39 AM 37.4192 -82.6864 37° Northeast 498 573 37,000  Level Indianapolis Center
Fri 10:35:41 AM 37.5306 -82.5781 38° Northeast 504 580 37,000  Level Indianapolis Center
Fri 10:36:43 AM 37.6428 -82.4683 38° Northeast 507 583 37,000  Level Indianapolis Center
Fri 10:37:45 AM 37.7731 -82.3411 38° Northeast 507 583 37,000 242 Level Indianapolis Center
Fri 10:38:47 AM 37.8856 -82.2328 37° Northeast 507 583 37,500 484 Climbing Indianapolis Center
Fri 10:39:49 AM 37.9997 -82.1197 38° Northeast 507 583 38,000 484 Climbing Indianapolis Center
Fri 10:40:51 AM 38.1111 -82.0094 38° Northeast 507 583 38,500 488 Climbing Indianapolis Center
Fri 10:41:52 AM 38.2203 -81.9003 38° Northeast 501 577 39,000 244 Climbing Indianapolis Center
Fri 10:42:54 AM 38.3303 -81.7911 38° Northeast 501 577 39,000  Level Indianapolis Center
Fri 10:43:56 AM 38.4297 -81.6564 47° Northeast 522 601 39,000  Level Indianapolis Center
Fri 10:44:58 AM 38.5433 -81.4919 49° Northeast 523 602 39,000  Level Indianapolis Center
Fri 10:46:00 AM 38.6386 -81.3575 48° Northeast 524 603 39,000  Level Indianapolis Center
Fri 10:47:02 AM 38.7328 -81.2228 48° Northeast 517 595 39,000  Level Indianapolis Center
Fri 10:48:04 AM 38.8267 -81.0850 49° Northeast 516 594 39,000  Level Indianapolis Center
Fri 10:49:06 AM 38.9222 -80.9478 48° Northeast 517 595 39,000  Level Indianapolis Center
Fri 10:50:07 AM 39.0361 -80.7831 48° Northeast 513 590 39,000  Level Indianapolis Center
Fri 10:51:09 AM 39.1319 -80.6500 47° Northeast 509 586 39,000  Level Indianapolis Center
Fri 10:52:11 AM 39.2267 -80.5167 47° Northeast 506 582 39,000  Level Indianapolis Center
Fri 10:53:13 AM 39.3208 -80.3844 47° Northeast 502 578 39,000  Level Indianapolis Center
Fri 10:54:15 AM 39.4150 -80.2522 47° Northeast 500 575 39,000  Level Indianapolis Center
Fri 10:55:10 AM 39.5033 -80.1311 47° Northeast 497 572 39,000  Level Cleveland Center
Fri 10:56:10 AM 39.5967 -79.9983 48° Northeast 497 572 39,000  Level Cleveland Center
Fri 10:57:10 AM 39.6875 -79.8656 48° Northeast 492 566 39,000  Level Cleveland Center
Fri 10:58:10 AM 39.7886 -79.7158 49° Northeast 492 566 39,000  Level Cleveland Center
Fri 10:59:10 AM 39.8772 -79.5822 49° Northeast 492 566 39,000  Level Cleveland Center
Fri 11:00:10 AM 39.9678 -79.4481 49° Northeast 487 560 39,000  Level Cleveland Center
Fri 11:01:10 AM 40.0600 -79.3108 49° Northeast 493 567 39,000  Level Cleveland Center
Fri 11:02:10 AM 40.1378 -79.1900 50° Northeast 481 554 39,000  Level Cleveland Center
Fri 11:03:10 AM 40.2278 -79.0522 49° Northeast 486 559 39,000  Level Cleveland Center
Fri 11:04:10 AM 40.3178 -78.9167 49° Northeast 491 565 39,000  Level Cleveland Center
Fri 11:05:10 AM 40.4072 -78.7781 50° Northeast 491 565 39,000  Level Cleveland Center
Fri 11:06:55 AM 40.5739 -78.5261 49° Northeast 505 581 39,000  Level New York Center
Fri 11:07:53 AM 40.6644 -78.3858 50° Northeast 505 581 39,000 -254 Level New York Center
Fri 11:08:53 AM 40.7522 -78.2475 50° Northeast 500 575 38,500 -694 Descending New York Center
Fri 11:09:54 AM 40.8333 -78.1192 50° Northeast 500 575 37,600 -744 Descending New York Center
Fri 11:10:54 AM 40.9056 -77.9622 59° Northeast 500 575 37,000 -300 Descending New York Center
Fri 11:11:54 AM 40.9714 -77.8042 61° Northeast 488 562 37,000 -347 Level New York Center
Fri 11:12:55 AM 41.0603 -77.6731 48° Northeast 483 556 36,300 -843 Descending New York Center
Fri 11:13:55 AM 41.1553 -77.5422 46° Northeast 483 556 35,300 -974 Descending New York Center
Fri 11:14:52 AM 41.2500 -77.4164 45° Northeast 483 556 34,400 -1,576 Descending New York Center
Fri 11:15:53 AM 41.3469 -77.2822 46° Northeast 473 544 32,200 -2,083 Descending New York Center
Fri 11:16:53 AM 41.4394 -77.1553 46° Northeast 473 544 30,200 -1,587 Descending New York Center
Fri 11:17:54 AM 41.5250 -77.0306 47° Northeast 489 563 29,000 -595 Descending New York Center
Fri 11:18:54 AM 41.6214 -76.9036 45° Northeast 489 563 29,000 -349 Level New York Center
Fri 11:21:03 AM 41.8231 -76.6167 47° Northeast 481 554 27,900 -698 Descending Boston Center
Fri 11:22:03 AM 41.9175 -76.4861 46° Northeast 481 554 26,800 -1,100 Descending Boston Center
Fri 11:23:03 AM 42.0119 -76.3525 46° Northeast 481 554 25,700 -1,100 Descending Boston Center
Fri 11:24:03 AM 42.1039 -76.2181 47° Northeast 481 554 24,600 -850 Descending Boston Center
Fri 11:25:03 AM 42.1839 -76.0717 54° Northeast 475 547 24,000 -300 Descending Boston Center
Fri 11:26:03 AM 42.2411 -75.9067 65° Northeast 469 540 24,000 -50 Level Boston Center
Fri 11:27:03 AM 42.3006 -75.7303 65° Northeast 474 545 23,900 -550 Descending Boston Center
Fri 11:28:03 AM 42.3036 -75.5506 89° East 459 528 22,900 -900 Descending Boston Center
Fri 11:29:03 AM 42.2914 -75.3872 96° East 467 537 22,100 -1,400 Descending Boston Center
Fri 11:30:03 AM 42.2747 -75.2181 98° East 467 537 20,100 -2,200 Descending Boston Center
Fri 11:31:03 AM 42.2558 -75.0406 98° East 445 512 17,700 -2,350 Descending Boston Center
Fri 11:32:03 AM 42.2447 -74.8858 95° East 427 491 15,400 -2,150 Descending Boston Center
Fri 11:33:03 AM 42.2853 -74.7497 68° East 395 455 13,400 -2,122 Descending Boston Center
Fri 11:33:25 AM 42.3092 -74.6972 58° Northeast 398 458 12,500 -1,900 Descending Boston Center
Fri 11:34:03 AM 42.3442 -74.6200 58° Northeast 387 445 11,500 -1,667 Descending Boston Center
Fri 11:34:19 AM 42.3656 -74.5814 53° Northeast 389 448 11,000 -400 Descending Boston Center
Fri 11:35:03 AM 42.4022 -74.5150 53° Northeast 379 436 11,100 -98 Climbing Boston Center
Fri 11:35:20 AM 42.4300 -74.4739 48° Northeast 368 423 10,900  Descending Boston Center
Fri 11:36:03 AM 42.4711 -74.4019 52° Northeast 367 422 11,100 -90 Climbing Boston Center
Fri 11:36:27 AM 42.4947 -74.3578 54° Northeast 351 404 10,800 -600 Descending Boston Center
Fri 11:37:03 AM 42.5183 -74.3106 56° Northeast 331 381 10,500 -1,222 Descending Boston Center
Fri 11:37:21 AM 42.5378 -74.2772 52° Northeast 287 330 9,700 -1,900 Descending Boston Center
Fri 11:38:03 AM 42.5681 -74.2106 58° Northeast 301 346 8,600 -1,770 Descending Boston Center
Fri 11:38:22 AM 42.5889 -74.1942 30° Northeast 284 327 7,900 -1,700 Descending Boston Center
Fri 11:39:03 AM 42.6292 -74.1586 33° Northeast 275 316 6,900 -2,066 Descending Boston Center
Fri 11:39:23 AM 42.6525 -74.1311 41° Northeast 282 325 5,800 -2,300 Descending Boston Center
Fri 11:40:03 AM 42.6886 -74.0783 47° Northeast 275 316 4,600 -1,700 Descending Boston Center
Fri 11:40:23 AM 42.7036 -74.0533 51° Northeast 275 316 4,100 -1,100 Descending Boston Center
Fri 11:41:03 AM 42.7378 -74.0033 47° Northeast 264 304 3,500 -885 Descending Boston Center
Fri 11:41:24 AM 42.7569 -73.9756 47° Northeast 258 297 3,200 -600 Descending Boston Center
Fri 11:42:03 AM 42.7886 -73.9481 33° Northeast 247 284 2,900 -393 Descending Boston Center
Fri 11:42:25 AM 42.8075 -73.9286 37° Northeast 210 242 2,800 -500 Descending Boston Center
Fri 11:43:03 AM 42.8119 -73.9006 78° East 232 267 2,400 -1,100 Descending Boston Center
Fri 11:43:25 AM 42.8125 -73.8581 89° East 176 203 1,700 -1,012 Descending Boston Center
Fri 11:44:26 AM 42.7903 -73.8094 122° Southeast 144 166 1,000 -689 Descending Boston Center

Login

Don't have an account? Register now (free) for customized features, flight alerts, and more!